Hobart Mills, California
Current Conditions -  °F | °C
As of 10:55 PM on Saturday 25 Oct 2014 (Local Time) from KTRK Reporting Station
Broken Clouds Broken Clouds  
Wind Chill: 31°   Ceiling: 3200
Heat Index: 37°   Visibility: 10mi
Dew Point: 32°   Wind: 8mph
Humidity: 81%   Direction: 160°SSE
Pressure: 30.13"   Gusts: NA
Location:  39.3569°N, 120.175°W
Report Text: KTRK 260555Z AUTO 16007KT 10SM BKN032 BKN041 03/00 A3013 RMK AO2
Loading
Personal Weather Stations






























Interactive Weather Map
Tropical Storm Tracking
New forecast layout! Learn more

10-Day Weather Forecast

Advertisements
Track Severe Weather on mobile